Time;durP1;ratioP1;P1;durP2;ratioP2;P2;SDS_P1;SDS_P2;PMS_P1;PMS_P2;Temp;Humidity;BMP_temperature;BMP_pressure;BME280_temperature;BME280_humidity;BME280_pressure;Samples;Min_cycle;Max_cycle;Signal;HPM_P1;HPM_P2
2023/05/26 00:00:03;;;;;;;9.13;4.90;;;15.70;99.90;;;;;;5088416;28;20643;-86
2023/05/26 00:02:30;;;;;;;14.47;5.30;;;15.50;99.90;;;;;;5120118;27;20193;-86
2023/05/26 00:05:01;;;;;;;12.13;4.97;;;15.50;99.90;;;;;;5074121;28;20189;-92
2023/05/26 00:07:27;;;;;;;15.00;5.23;;;15.40;99.90;;;;;;5084630;28;20196;-86
2023/05/26 00:09:54;;;;;;;13.03;5.07;;;15.30;99.90;;;;;;5072000;28;20193;-92
2023/05/26 00:12:21;;;;;;;14.03;5.67;;;15.20;99.90;;;;;;5120434;27;20597;-90
2023/05/26 00:14:48;;;;;;;10.60;5.30;;;15.20;99.90;;;;;;5089643;28;20190;-87
2023/05/26 00:17:18;;;;;;;15.27;5.57;;;15.20;99.90;;;;;;5122310;27;20317;-87
2023/05/26 00:19:44;;;;;;;12.57;4.97;;;15.20;99.90;;;;;;5107408;27;20181;-87
2023/05/26 00:22:14;;;;;;;14.93;4.80;;;15.10;99.90;;;;;;5094330;27;20401;-86
2023/05/26 00:24:41;;;;;;;12.40;5.10;;;15.10;99.90;;;;;;5068734;28;20189;-87
2023/05/26 00:27:07;;;;;;;10.40;5.23;;;15.10;99.90;;;;;;5067979;28;20193;-86
2023/05/26 00:29:35;;;;;;;14.87;6.20;;;15.10;99.90;;;;;;5087242;28;20224;-87
2023/05/26 00:32:01;;;;;;;10.83;5.07;;;15.20;99.90;;;;;;5083370;28;20186;-87
2023/05/26 00:34:28;;;;;;;11.03;5.23;;;15.20;99.90;;;;;;5102048;28;20236;-89
2023/05/26 00:36:54;;;;;;;14.07;5.00;;;15.10;99.90;;;;;;5070693;28;20205;-85
2023/05/26 00:39:20;;;;;;;21.50;5.33;;;15.10;99.90;;;;;;5087857;28;20628;-84
2023/05/26 00:41:48;;;;;;;12.00;5.40;;;14.90;99.90;;;;;;5067659;28;20681;-85
2023/05/26 00:44:15;;;;;;;13.63;5.47;;;14.80;99.90;;;;;;5082867;28;20185;-85
2023/05/26 00:46:42;;;;;;;13.37;5.43;;;14.80;99.90;;;;;;5067490;28;20173;-89
2023/05/26 00:49:14;;;;;;;13.47;5.40;;;14.80;99.90;;;;;;5084849;28;20213;-90
2023/05/26 00:51:43;;;;;;;12.27;5.43;;;14.90;99.90;;;;;;5088584;28;20193;-89
2023/05/26 00:54:15;;;;;;;13.67;5.60;;;14.90;99.90;;;;;;5078702;28;20189;-88
2023/05/26 00:56:42;;;;;;;13.00;5.10;;;14.80;99.90;;;;;;5095109;28;20192;-88
2023/05/26 00:59:41;;;;;;;10.23;5.13;;;14.80;99.90;;;;;;5119228;27;20487;-89
2023/05/26 01:02:07;;;;;;;7.93;5.20;;;14.90;99.90;;;;;;5069739;28;20224;-88
2023/05/26 01:04:35;;;;;;;15.43;5.40;;;15.00;99.90;;;;;;5089765;28;20235;-89
2023/05/26 01:07:01;;;;;;;15.27;5.17;;;15.00;99.90;;;;;;5069446;27;20185;-91
2023/05/26 01:09:28;;;;;;;12.90;5.30;;;15.10;99.90;;;;;;5071095;28;20274;-91
2023/05/26 01:12:15;;;;;;;12.73;4.97;;;15.10;99.90;;;;;;5066945;28;20185;-91
2023/05/26 01:15:13;;;;;;;9.77;4.80;;;15.10;99.90;;;;;;5071143;28;20193;-91
2023/05/26 01:18:14;;;;;;;10.80;4.53;;;15.10;99.90;;;;;;5098414;27;20209;-91
2023/05/26 01:21:05;;;;;;;9.73;4.70;;;15.00;99.90;;;;;;5105727;27;20196;-92
2023/05/26 01:24:06;;;;;;;16.17;4.67;;;15.10;99.90;;;;;;5091363;27;20190;-90
2023/05/26 01:27:12;;;;;;;12.80;4.50;;;15.10;99.90;;;;;;5100201;27;20205;-92
2023/05/26 01:29:39;;;;;;;13.03;4.20;;;15.10;99.90;;;;;;5085126;28;20193;-93
2023/05/26 01:32:13;;;;;;;9.33;4.70;;;15.00;99.90;;;;;;5069558;28;20200;-93
2023/05/26 01:34:40;;;;;;;11.27;4.47;;;15.10;99.90;;;;;;5078012;27;20196;-85
2023/05/26 01:37:07;;;;;;;12.67;5.07;;;15.10;99.90;;;;;;5070606;28;20358;-85
2023/05/26 01:39:36;;;;;;;10.57;5.00;;;15.00;99.90;;;;;;5103967;27;20186;-92
2023/05/26 01:42:22;;;;;;;13.70;4.50;;;15.00;99.90;;;;;;5065376;27;20204;-92
2023/05/26 01:45:10;;;;;;;13.57;4.70;;;14.90;99.90;;;;;;5104491;28;20185;-90
2023/05/26 01:47:41;;;;;;;13.03;5.03;;;14.80;99.90;;;;;;5105610;27;20186;-89
2023/05/26 01:50:10;;;;;;;11.37;4.57;;;14.80;99.90;;;;;;5070707;28;20748;-85
2023/05/26 01:52:42;;;;;;;12.73;4.80;;;14.80;99.90;;;;;;5083727;28;20247;-85
2023/05/26 01:55:12;;;;;;;14.97;4.53;;;14.80;99.90;;;;;;5068657;27;20222;-85
2023/05/26 01:57:42;;;;;;;11.43;4.03;;;14.70;99.90;;;;;;5087317;28;20228;-91
2023/05/26 02:00:09;;;;;;;12.80;4.17;;;14.70;99.90;;;;;;5087200;28;20227;-90
2023/05/26 02:02:36;;;;;;;14.03;4.43;;;14.70;99.90;;;;;;5104317;27;20507;-86
2023/05/26 02:05:02;;;;;;;10.17;4.10;;;14.70;99.90;;;;;;5088529;28;20276;-90
2023/05/26 02:07:29;;;;;;;19.20;4.67;;;14.70;99.90;;;;;;5122691;27;20189;-83
2023/05/26 02:09:55;;;;;;;21.87;4.40;;;14.60;99.90;;;;;;5097109;27;20980;-86
2023/05/26 02:12:21;;;;;;;12.37;4.20;;;14.60;99.90;;;;;;5086878;28;20652;-85
2023/05/26 02:14:48;;;;;;;13.63;4.00;;;14.60;99.90;;;;;;5113902;27;20281;-84
2023/05/26 02:17:17;;;;;;;13.23;3.60;;;14.50;99.90;;;;;;5088400;28;20217;-83
2023/05/26 02:19:43;;;;;;;12.67;3.63;;;14.50;99.90;;;;;;5109523;27;20193;-88
2023/05/26 02:22:12;;;;;;;10.07;3.73;;;14.40;99.90;;;;;;5093005;28;20214;-86
2023/05/26 02:24:38;;;;;;;10.50;4.27;;;14.40;99.90;;;;;;5071581;28;20178;-91
2023/05/26 02:27:06;;;;;;;7.47;3.87;;;14.40;99.90;;;;;;5068664;28;20745;-87
2023/05/26 02:29:33;;;;;;;10.93;3.57;;;14.40;99.90;;;;;;5068499;28;20528;-90
2023/05/26 02:31:59;;;;;;;11.53;3.93;;;14.50;99.90;;;;;;5072948;28;20199;-84
2023/05/26 02:34:26;;;;;;;8.53;3.67;;;14.50;99.90;;;;;;5114880;28;20189;-83
2023/05/26 02:36:55;;;;;;;9.90;3.50;;;14.40;99.90;;;;;;5086017;28;20197;-85
2023/05/26 02:39:22;;;;;;;9.43;3.53;;;14.40;99.90;;;;;;5081691;28;20481;-83
2023/05/26 02:41:49;;;;;;;7.83;3.53;;;14.40;99.90;;;;;;5098336;28;20183;-87
2023/05/26 02:44:15;;;;;;;12.10;3.57;;;14.40;99.90;;;;;;5071102;28;20562;-88
2023/05/26 02:46:41;;;;;;;7.43;3.23;;;14.40;99.90;;;;;;5103510;28;20264;-87
2023/05/26 02:49:08;;;;;;;6.77;3.27;;;14.30;99.90;;;;;;5069720;28;20275;-88
2023/05/26 02:51:35;;;;;;;11.33;3.87;;;14.20;99.90;;;;;;5071777;28;20185;-88
2023/05/26 02:54:02;;;;;;;14.57;3.53;;;14.20;99.90;;;;;;5091380;28;20314;-88
2023/05/26 02:56:29;;;;;;;11.53;4.00;;;14.20;99.90;;;;;;5101694;28;20275;-83
2023/05/26 02:58:55;;;;;;;17.97;3.77;;;14.20;99.90;;;;;;5090023;28;20213;-87
2023/05/26 03:01:24;;;;;;;14.20;4.00;;;14.20;99.90;;;;;;5103085;28;20251;-88
2023/05/26 03:03:50;;;;;;;13.70;4.73;;;14.10;99.90;;;;;;5069936;28;20190;-87
2023/05/26 03:06:17;;;;;;;10.20;3.90;;;14.10;99.90;;;;;;5085828;28;20277;-87
2023/05/26 03:08:47;;;;;;;17.17;4.00;;;14.10;99.90;;;;;;5073162;28;20193;-87
2023/05/26 03:11:13;;;;;;;13.37;4.27;;;14.20;99.90;;;;;;5064371;28;20185;-83
2023/05/26 03:13:40;;;;;;;15.60;4.27;;;14.20;99.90;;;;;;5069629;28;20201;-83
2023/05/26 03:16:07;;;;;;;14.57;4.50;;;14.20;99.90;;;;;;5086138;28;20718;-83
2023/05/26 03:18:33;;;;;;;12.03;5.13;;;14.20;99.90;;;;;;5122468;27;20231;-87
2023/05/26 03:21:00;;;;;;;12.00;4.63;;;14.30;99.90;;;;;;5093639;27;20184;-84
2023/05/26 03:23:27;;;;;;;12.67;4.67;;;14.30;99.90;;;;;;5092924;27;20209;-88
2023/05/26 03:25:54;;;;;;;13.90;4.50;;;14.40;99.90;;;;;;5090649;27;20189;-86
2023/05/26 03:28:21;;;;;;;11.90;4.07;;;14.40;99.90;;;;;;5072385;27;20195;-85
2023/05/26 03:30:47;;;;;;;11.73;3.70;;;14.50;99.90;;;;;;5105715;27;20195;-83
2023/05/26 03:33:13;;;;;;;8.57;3.73;;;14.50;99.90;;;;;;5092212;27;20273;-87
2023/05/26 03:35:40;;;;;;;11.40;4.03;;;14.40;99.90;;;;;;5091189;28;20280;-87
2023/05/26 03:38:06;;;;;;;10.37;4.07;;;14.40;99.90;;;;;;5107118;27;20213;-85
2023/05/26 03:40:32;;;;;;;16.03;4.50;;;14.40;99.90;;;;;;5122653;27;20215;-82
2023/05/26 03:43:01;;;;;;;14.20;4.63;;;14.40;99.90;;;;;;5078657;27;20189;-85
2023/05/26 03:45:28;;;;;;;13.53;4.90;;;14.50;99.90;;;;;;5086232;28;20529;-88
2023/05/26 03:47:54;;;;;;;10.83;4.50;;;14.50;99.90;;;;;;5078519;27;22103;-88
2023/05/26 03:50:21;;;;;;;10.13;4.07;;;14.50;99.90;;;;;;5093627;28;20284;-89
2023/05/26 03:52:48;;;;;;;12.30;4.63;;;14.50;99.90;;;;;;5105038;27;20192;-88
2023/05/26 03:55:17;;;;;;;13.43;4.37;;;14.60;99.90;;;;;;5104232;28;20185;-88
2023/05/26 03:57:49;;;;;;;12.10;4.80;;;14.70;99.90;;;;;;5121202;27;20210;-87
2023/05/26 04:00:17;;;;;;;10.63;4.67;;;14.70;99.90;;;;;;5089928;28;20177;-90
2023/05/26 04:02:44;;;;;;;10.30;4.10;;;14.70;99.90;;;;;;5098870;27;20192;-87
2023/05/26 04:05:13;;;;;;;14.07;5.27;;;14.80;99.90;;;;;;5099043;27;20553;-84
2023/05/26 04:07:42;;;;;;;10.47;4.97;;;14.80;99.90;;;;;;5065861;27;20181;-84
2023/05/26 04:10:11;;;;;;;15.40;5.37;;;14.80;99.90;;;;;;5101463;27;20189;-86
2023/05/26 04:12:38;;;;;;;12.77;5.10;;;14.90;99.90;;;;;;5088356;28;20189;-84
2023/05/26 04:15:05;;;;;;;14.10;4.83;;;14.90;99.90;;;;;;5106820;27;20622;-87
2023/05/26 04:17:31;;;;;;;15.07;5.10;;;15.00;99.90;;;;;;5104487;27;20201;-87
2023/05/26 04:19:59;;;;;;;10.00;4.37;;;15.00;99.90;;;;;;5085178;28;20209;-87
2023/05/26 04:22:25;;;;;;;14.90;4.60;;;15.10;99.90;;;;;;5087494;27;20416;-87
2023/05/26 04:24:51;;;;;;;14.40;5.30;;;15.20;99.90;;;;;;5072778;27;20177;-87
2023/05/26 04:27:18;;;;;;;13.93;4.23;;;15.20;99.90;;;;;;5092762;28;20197;-87
2023/05/26 04:29:44;;;;;;;10.47;4.40;;;15.20;99.90;;;;;;5067020;27;20262;-84
2023/05/26 04:32:11;;;;;;;13.60;4.63;;;15.30;99.90;;;;;;5091303;27;20508;-84
2023/05/26 04:34:39;;;;;;;7.20;4.40;;;15.30;99.90;;;;;;5102201;28;20186;-85
2023/05/26 04:37:08;;;;;;;11.73;5.47;;;15.40;99.90;;;;;;5089133;28;20223;-87
2023/05/26 04:39:36;;;;;;;14.17;5.70;;;15.40;99.90;;;;;;5104057;27;20192;-84
2023/05/26 04:42:05;;;;;;;17.10;5.00;;;15.50;99.90;;;;;;5071478;28;20181;-87
2023/05/26 04:44:32;;;;;;;13.77;5.80;;;15.60;99.90;;;;;;5076961;28;20192;-84
2023/05/26 04:47:00;;;;;;;10.23;5.60;;;15.60;99.90;;;;;;5068771;27;20187;-84
2023/05/26 04:49:29;;;;;;;10.53;5.67;;;15.70;99.90;;;;;;5070886;28;20235;-86
2023/05/26 04:51:58;;;;;;;10.70;5.83;;;15.70;99.90;;;;;;5114526;27;20189;-86
2023/05/26 04:54:25;;;;;;;10.37;5.63;;;15.80;99.90;;;;;;5087732;28;20194;-85
2023/05/26 04:56:51;;;;;;;11.20;5.23;;;15.90;99.90;;;;;;5083635;27;20177;-85
2023/05/26 04:59:21;;;;;;;10.97;6.07;;;15.90;99.90;;;;;;5100428;27;20695;-85
2023/05/26 05:01:48;;;;;;;15.93;5.60;;;15.90;99.90;;;;;;5098265;28;20194;-85
2023/05/26 05:04:14;;;;;;;16.13;6.07;;;16.00;99.90;;;;;;5068181;27;20192;-85
2023/05/26 05:06:41;;;;;;;12.33;5.43;;;16.00;99.90;;;;;;5086417;28;20265;-84
2023/05/26 05:09:10;;;;;;;14.07;5.40;;;16.10;99.90;;;;;;5068991;27;20189;-86
2023/05/26 05:11:37;;;;;;;14.30;5.17;;;16.10;99.90;;;;;;5085483;28;20181;-87
2023/05/26 05:14:03;;;;;;;9.70;4.70;;;16.20;99.90;;;;;;5071311;27;20224;-86
2023/05/26 05:16:31;;;;;;;12.27;5.03;;;16.20;99.90;;;;;;5086863;28;20213;-86
2023/05/26 05:18:58;;;;;;;11.07;5.47;;;16.30;99.90;;;;;;5067053;28;20206;-85
2023/05/26 05:21:28;;;;;;;10.63;4.73;;;16.30;99.90;;;;;;5098814;27;20648;-85
2023/05/26 05:23:57;;;;;;;11.27;4.80;;;16.40;99.90;;;;;;5086577;28;20188;-85
2023/05/26 05:26:25;;;;;;;13.23;4.80;;;16.40;99.90;;;;;;5068077;27;20181;-84
2023/05/26 05:28:51;;;;;;;11.53;4.17;;;16.50;99.90;;;;;;5088916;27;20264;-86
2023/05/26 05:31:18;;;;;;;12.37;4.67;;;16.50;99.90;;;;;;5089710;28;20192;-86
2023/05/26 05:33:44;;;;;;;14.83;4.80;;;16.60;99.90;;;;;;5085072;27;20200;-85
2023/05/26 05:36:11;;;;;;;7.33;4.30;;;16.70;99.90;;;;;;5106057;27;20260;-85
2023/05/26 05:38:37;;;;;;;11.17;4.87;;;16.70;99.90;;;;;;5087084;27;20252;-86
2023/05/26 05:41:04;;;;;;;16.47;5.27;;;16.80;99.90;;;;;;5119041;27;20615;-85
2023/05/26 05:43:32;;;;;;;12.30;5.00;;;16.80;99.90;;;;;;5115298;27;20177;-84
2023/05/26 05:45:59;;;;;;;13.97;5.10;;;16.90;99.90;;;;;;5101819;27;20180;-84
2023/05/26 05:48:26;;;;;;;17.20;5.50;;;17.00;99.90;;;;;;5100643;28;20353;-86
2023/05/26 05:50:52;;;;;;;13.87;6.30;;;17.00;99.90;;;;;;5082091;28;20701;-89
2023/05/26 05:53:18;;;;;;;14.67;7.23;;;17.10;99.90;;;;;;5116878;27;20188;-85
2023/05/26 05:55:46;;;;;;;12.97;6.57;;;17.20;99.90;;;;;;5068931;27;20576;-85
2023/05/26 05:58:17;;;;;;;12.50;7.10;;;17.30;99.90;;;;;;5069486;28;20210;-87
2023/05/26 06:00:44;;;;;;;20.70;7.47;;;17.30;99.90;;;;;;5090617;28;21171;-86
2023/05/26 06:03:10;;;;;;;16.93;7.73;;;17.40;99.90;;;;;;5114367;27;20211;-85
2023/05/26 06:05:37;;;;;;;13.37;8.00;;;17.40;99.90;;;;;;5087150;27;20284;-87
2023/05/26 06:08:03;;;;;;;17.70;7.93;;;17.60;99.90;;;;;;5068090;27;20190;-86
2023/05/26 06:10:33;;;;;;;19.10;7.97;;;17.60;99.90;;;;;;5069107;28;20193;-88
2023/05/26 06:12:59;;;;;;;16.87;6.77;;;17.80;99.90;;;;;;5117634;27;20238;-88
2023/05/26 06:15:29;;;;;;;16.63;7.17;;;17.80;99.90;;;;;;5070876;28;20614;-88
2023/05/26 06:17:56;;;;;;;16.67;7.07;;;17.90;99.90;;;;;;5066542;28;20202;-84
2023/05/26 06:20:23;;;;;;;20.73;6.37;;;18.00;99.90;;;;;;5085597;28;20226;-83
2023/05/26 06:22:50;;;;;;;14.60;6.27;;;18.00;99.90;;;;;;5071125;28;20242;-84
2023/05/26 06:25:16;;;;;;;12.03;6.00;;;18.00;99.90;;;;;;5119506;27;20208;-88
2023/05/26 06:27:42;;;;;;;13.53;5.87;;;18.10;99.90;;;;;;5089127;28;20635;-86
2023/05/26 06:30:10;;;;;;;14.07;5.27;;;18.20;99.90;;;;;;5084867;28;20190;-87
2023/05/26 06:32:39;;;;;;;9.47;5.40;;;18.20;99.90;;;;;;5071927;28;20181;-83
2023/05/26 06:35:06;;;;;;;13.10;4.67;;;18.30;99.90;;;;;;5072184;28;20203;-84
2023/05/26 06:37:33;;;;;;;18.60;5.03;;;18.40;99.90;;;;;;5083771;28;20787;-84
2023/05/26 06:39:59;;;;;;;14.30;4.70;;;18.50;99.90;;;;;;5066303;28;20188;-85
2023/05/26 06:42:25;;;;;;;10.20;4.53;;;18.50;99.90;;;;;;5098800;28;20270;-85
2023/05/26 06:44:52;;;;;;;18.37;4.83;;;18.60;99.90;;;;;;5089694;28;20186;-85
2023/05/26 06:47:23;;;;;;;20.30;6.60;;;18.70;99.90;;;;;;5085930;28;20185;-86
2023/05/26 06:49:51;;;;;;;11.57;6.40;;;18.80;99.90;;;;;;5068709;28;20181;-86
2023/05/26 06:52:20;;;;;;;16.23;6.80;;;19.00;99.90;;;;;;5089910;28;20189;-89
2023/05/26 06:54:46;;;;;;;15.43;6.50;;;19.10;99.90;;;;;;5073992;28;20189;-87
2023/05/26 06:57:13;;;;;;;13.50;6.87;;;19.20;99.90;;;;;;5066456;28;20206;-89
2023/05/26 06:59:41;;;;;;;10.33;6.53;;;19.30;99.90;;;;;;5119350;27;20299;-84
2023/05/26 07:02:08;;;;;;;13.57;6.97;;;19.40;99.90;;;;;;5110173;27;20252;-85
2023/05/26 07:04:34;;;;;;;12.23;6.67;;;19.50;99.90;;;;;;5107646;27;20208;-87
2023/05/26 07:07:01;;;;;;;11.17;7.80;;;19.60;99.90;;;;;;5085507;28;20185;-87
2023/05/26 07:09:27;;;;;;;17.03;8.37;;;19.60;99.90;;;;;;5078927;27;20785;-87
2023/05/26 07:11:53;;;;;;;12.53;8.13;;;19.70;99.90;;;;;;5101498;28;20186;-86
2023/05/26 07:14:20;;;;;;;13.10;6.93;;;19.80;99.90;;;;;;5092477;27;20563;-86
2023/05/26 07:16:47;;;;;;;13.80;6.33;;;19.90;99.90;;;;;;5105360;27;20182;-83
2023/05/26 07:19:14;;;;;;;15.87;6.80;;;19.90;99.90;;;;;;5101658;28;20205;-86
2023/05/26 07:21:40;;;;;;;9.83;6.40;;;20.00;99.90;;;;;;5089373;27;20185;-85
2023/05/26 07:24:07;;;;;;;12.10;5.97;;;20.00;99.90;;;;;;5088790;28;20290;-85
2023/05/26 07:26:33;;;;;;;13.43;6.07;;;20.10;99.90;;;;;;5121924;27;20209;-84
2023/05/26 07:29:01;;;;;;;12.60;7.17;;;20.20;99.90;;;;;;5070885;28;20174;-89
2023/05/26 07:31:30;;;;;;;14.93;7.00;;;20.30;99.90;;;;;;5076491;27;20566;-83
2023/05/26 07:33:56;;;;;;;15.87;6.80;;;20.40;99.90;;;;;;5119625;27;20185;-83
2023/05/26 07:36:23;;;;;;;13.90;6.63;;;20.60;99.90;;;;;;5096394;27;20247;-84
2023/05/26 07:38:50;;;;;;;11.87;8.00;;;20.70;99.90;;;;;;5104856;27;20310;-87
2023/05/26 07:41:16;;;;;;;14.70;7.20;;;20.80;99.90;;;;;;5106880;27;20178;-85
2023/05/26 07:43:42;;;;;;;15.63;7.90;;;20.80;99.90;;;;;;5120612;27;20178;-84
2023/05/26 07:46:09;;;;;;;13.03;7.20;;;20.90;99.90;;;;;;5076338;27;20217;-84
2023/05/26 07:48:36;;;;;;;18.00;7.40;;;21.00;99.90;;;;;;5095508;28;20186;-84
2023/05/26 07:51:02;;;;;;;11.37;7.43;;;21.10;99.90;;;;;;5067036;28;20695;-88
2023/05/26 07:53:29;;;;;;;12.93;7.53;;;21.20;99.90;;;;;;5070053;28;20247;-87
2023/05/26 07:55:55;;;;;;;14.07;7.23;;;21.20;99.90;;;;;;5084160;27;20180;-82
2023/05/26 07:58:22;;;;;;;13.33;7.80;;;21.30;99.90;;;;;;5068681;28;20305;-92
2023/05/26 08:00:48;;;;;;;16.10;8.53;;;21.40;99.90;;;;;;5104652;27;20227;-85
2023/05/26 08:03:17;;;;;;;15.23;7.63;;;21.50;99.90;;;;;;5073652;27;20181;-84
2023/05/26 08:05:44;;;;;;;13.43;8.67;;;21.50;99.90;;;;;;5115955;27;20260;-83
2023/05/26 08:08:10;;;;;;;14.27;8.60;;;21.60;99.90;;;;;;5087263;27;20190;-90
2023/05/26 08:10:37;;;;;;;18.13;8.63;;;21.70;99.90;;;;;;5087565;28;20351;-86
2023/05/26 08:13:03;;;;;;;13.50;8.60;;;21.80;99.90;;;;;;5091943;27;20193;-86
2023/05/26 08:15:30;;;;;;;13.13;8.53;;;21.90;99.90;;;;;;5089311;28;20264;-89
2023/05/26 08:17:56;;;;;;;13.65;8.35;;;22.00;99.90;;;;;;5073721;28;20210;-85
2023/05/26 08:20:22;;;;;;;13.18;8.05;;;22.10;99.90;;;;;;5071749;27;20230;-86
2023/05/26 08:22:50;;;;;;;18.75;8.50;;;22.10;99.90;;;;;;5077905;28;20230;-86
2023/05/26 08:25:17;;;;;;;14.68;7.28;;;22.20;99.90;;;;;;5103459;27;20170;-88
2023/05/26 08:27:43;;;;;;;16.17;7.80;;;22.20;99.90;;;;;;5090842;27;20726;-84
2023/05/26 08:30:10;;;;;;;13.00;7.70;;;22.20;99.90;;;;;;5084475;27;20224;-83
2023/05/26 08:32:37;;;;;;;12.53;7.57;;;22.30;99.90;;;;;;5076012;27;20185;-86
2023/05/26 08:35:04;;;;;;;10.73;7.00;;;22.40;99.90;;;;;;5121745;27;20664;-88
2023/05/26 08:37:30;;;;;;;13.00;8.18;;;22.40;99.90;;;;;;5098427;27;20908;-88
2023/05/26 08:40:02;;;;;;;12.52;7.72;;;22.50;99.90;;;;;;5124723;27;20174;-86
2023/05/26 08:42:37;;;;;;;15.90;8.60;;;22.60;99.90;;;;;;5061823;28;20282;-88
2023/05/26 08:45:04;;;;;;;16.27;8.43;;;22.70;99.90;;;;;;5081132;28;20200;-86
2023/05/26 08:47:36;;;;;;;11.30;7.60;;;22.70;99.90;;;;;;5068653;28;20201;-87
2023/05/26 08:50:09;;;;;;;14.85;7.90;;;22.70;99.90;;;;;;5108848;28;20186;-85
2023/05/26 08:52:41;;;;;;;14.20;8.55;;;22.80;99.90;;;;;;5072369;28;20262;-85
2023/05/26 08:55:11;;;;;;;14.60;8.65;;;22.80;99.90;;;;;;5120190;27;20187;-88
2023/05/26 08:57:42;;;;;;;14.50;8.48;;;22.90;99.90;;;;;;5075313;28;20567;-85
2023/05/26 09:00:12;;;;;;;12.65;8.35;;;22.90;99.90;;;;;;5085020;28;20189;-87
2023/05/26 09:02:39;;;;;;;9.73;8.10;;;22.90;99.90;;;;;;5075130;28;20178;-87
2023/05/26 09:05:06;;;;;;;14.65;8.85;;;23.00;99.90;;;;;;5092286;28;20177;-85
2023/05/26 09:07:35;;;;;;;13.18;8.27;;;23.10;99.90;;;;;;5087417;28;20182;-87
2023/05/26 09:10:23;;;;;;;15.13;9.15;;;23.10;99.90;;;;;;5109782;27;20319;-86
2023/05/26 09:13:07;;;;;;;15.07;8.73;;;23.20;99.90;;;;;;5103461;27;20207;-88
2023/05/26 09:15:38;;;;;;;13.48;8.65;;;23.30;99.90;;;;;;5097600;28;20188;-85
2023/05/26 09:18:13;;;;;;;12.15;9.10;;;23.30;99.90;;;;;;5076893;27;20223;-90
2023/05/26 09:20:50;;;;;;;13.75;8.93;;;23.30;99.90;;;;;;5076563;28;20181;-88
2023/05/26 09:23:21;;;;;;;16.50;9.45;;;23.20;99.90;;;;;;5122551;27;20210;-89
2023/05/26 09:25:50;;;;;;;18.10;9.40;;;23.30;99.90;;;;;;5088309;27;20209;-85
2023/05/26 09:28:20;;;;;;;11.70;8.85;;;23.40;99.90;;;;;;5077164;28;20369;-87
2023/05/26 09:30:48;;;;;;;15.75;9.80;;;23.40;99.90;;;;;;5111270;27;20178;-89
2023/05/26 09:33:19;;;;;;;14.65;9.10;;;23.40;99.90;;;;;;5074890;27;20198;-85
2023/05/26 09:35:48;;;;;;;14.25;9.35;;;23.30;99.90;;;;;;5074026;28;20181;-84
2023/05/26 09:38:20;;;;;;;11.18;8.93;;;23.30;99.90;;;;;;5106512;28;20209;-87
2023/05/26 09:40:49;;;;;;;14.20;8.27;;;23.20;99.90;;;;;;5121340;27;20184;-85
2023/05/26 09:43:20;;;;;;;13.20;8.73;;;23.20;99.90;;;;;;5103060;28;20213;-85
2023/05/26 09:45:46;;;;;;;15.75;9.48;;;23.10;99.90;;;;;;5074988;28;20231;-85
2023/05/26 09:48:15;;;;;;;12.95;9.68;;;23.20;99.90;;;;;;5066806;28;20198;-87
2023/05/26 09:50:41;;;;;;;22.33;9.63;;;23.30;99.90;;;;;;5072908;28;20178;-87
2023/05/26 09:53:10;;;;;;;18.08;9.15;;;23.40;99.90;;;;;;5085212;28;20200;-86
2023/05/26 09:55:46;;;;;;;14.90;8.98;;;23.50;99.90;;;;;;5103823;28;20216;-85
2023/05/26 09:58:13;;;;;;;15.20;9.15;;;23.60;99.90;;;;;;5085497;28;20207;-83
2023/05/26 10:00:42;;;;;;;16.35;9.70;;;23.80;99.90;;;;;;5118993;27;20648;-86
2023/05/26 10:03:11;;;;;;;19.58;9.63;;;23.60;99.90;;;;;;5064136;28;20197;-86
2023/05/26 10:05:45;;;;;;;13.43;8.73;;;23.40;99.90;;;;;;5072371;28;20936;-86
2023/05/26 10:08:20;;;;;;;14.50;8.20;;;23.40;99.90;;;;;;5072199;28;20542;-88
2023/05/26 10:10:50;;;;;;;19.92;8.20;;;23.50;99.90;;;;;;5097609;28;20188;-85
2023/05/26 10:13:18;;;;;;;14.68;8.88;;;23.60;99.90;;;;;;5086855;28;20231;-86
2023/05/26 10:15:46;;;;;;;16.85;10.55;;;23.40;99.90;;;;;;5105678;27;20205;-87
2023/05/26 10:18:13;;;;;;;13.35;9.70;;;23.30;99.90;;;;;;5085596;28;20201;-84
2023/05/26 10:20:44;;;;;;;14.25;11.10;;;23.40;99.90;;;;;;5068163;28;20280;-84
2023/05/26 10:23:37;;;;;;;16.77;11.27;;;23.40;99.90;;;;;;5089243;28;20258;-91
2023/05/26 10:26:40;;;;;;;14.45;12.48;;;23.30;99.90;;;;;;5074533;28;20242;-84
2023/05/26 10:29:12;;;;;;;13.70;10.75;;;23.30;99.90;;;;;;5064495;28;20216;-87
2023/05/26 10:31:40;;;;;;;14.00;12.50;;;23.30;99.90;;;;;;5088239;28;20189;-89
2023/05/26 10:34:42;;;;;;;17.15;12.10;;;23.20;99.90;;;;;;5091505;28;20238;-87
2023/05/26 10:37:17;;;;;;;15.57;13.40;;;23.20;99.90;;;;;;5087899;28;20189;-90
2023/05/26 10:39:45;;;;;;;17.52;13.57;;;23.30;99.90;;;;;;5072105;28;20189;-84
2023/05/26 10:42:34;;;;;;;17.85;13.20;;;23.30;99.90;;;;;;5084964;28;20644;-92
2023/05/26 10:45:18;;;;;;;13.85;12.50;;;23.30;99.90;;;;;;5096065;28;20192;-89
2023/05/26 10:47:48;;;;;;;19.85;15.18;;;23.30;99.90;;;;;;5088713;28;20189;-89
2023/05/26 10:50:16;;;;;;;18.65;12.98;;;23.30;99.90;;;;;;5063464;28;20177;-91
2023/05/26 10:52:51;;;;;;;16.75;14.10;;;23.30;99.90;;;;;;5069110;28;20185;-86
2023/05/26 10:56:08;;;;;;;18.52;15.05;;;23.30;99.90;;;;;;5104574;28;20211;-91
2023/05/26 10:58:51;;;;;;;19.17;16.60;;;23.30;99.90;;;;;;5019479;28;20729;-87
2023/05/26 11:01:31;;;;;;;21.48;14.90;;;23.20;99.90;;;;;;5070216;28;20181;-89
2023/05/26 11:04:09;;;;;;;20.13;15.45;;;23.20;99.90;;;;;;5114754;28;20552;-91
2023/05/26 11:06:51;;;;;;;17.50;14.82;;;23.20;99.90;;;;;;5092328;28;20196;-87
2023/05/26 11:09:23;;;;;;;17.17;14.57;;;23.20;99.90;;;;;;5085950;28;20843;-88
2023/05/26 11:12:03;;;;;;;18.42;14.63;;;23.20;99.90;;;;;;5102919;28;20701;-86
2023/05/26 11:14:34;;;;;;;18.27;15.43;;;23.20;99.90;;;;;;5088470;28;20419;-86
2023/05/26 11:17:04;;;;;;;17.30;15.10;;;23.30;99.90;;;;;;5101190;28;20647;-87
2023/05/26 11:19:37;;;;;;;20.05;16.20;;;23.30;99.90;;;;;;5104476;28;20637;-89
2023/05/26 11:22:15;;;;;;;18.67;16.60;;;23.30;99.90;;;;;;5069861;28;20683;-90
2023/05/26 11:24:44;;;;;;;22.60;15.88;;;23.30;99.90;;;;;;5117647;28;20189;-87
2023/05/26 11:27:13;;;;;;;18.35;16.23;;;23.30;99.90;;;;;;5084546;28;20233;-90
2023/05/26 11:29:39;;;;;;;18.30;15.85;;;23.30;99.90;;;;;;5087252;28;20189;-88
2023/05/26 11:32:06;;;;;;;19.33;14.98;;;23.30;99.90;;;;;;5098799;28;20178;-90
2023/05/26 11:34:36;;;;;;;20.13;15.25;;;23.30;99.90;;;;;;5064662;28;20186;-84
2023/05/26 11:37:02;;;;;;;19.00;16.95;;;23.20;99.90;;;;;;5067738;28;20223;-87
2023/05/26 11:39:35;;;;;;;20.58;16.35;;;23.20;99.90;;;;;;5074972;28;20268;-89
2023/05/26 11:42:10;;;;;;;19.52;17.45;;;23.20;99.90;;;;;;5102854;28;20181;-84
2023/05/26 11:44:38;;;;;;;22.00;16.45;;;23.20;99.90;;;;;;5090629;28;20177;-88
2023/05/26 11:47:06;;;;;;;21.73;16.58;;;23.20;99.90;;;;;;5066564;28;20189;-83
2023/05/26 11:49:33;;;;;;;18.77;16.83;;;23.10;99.90;;;;;;5068766;28;20790;-90
2023/05/26 11:52:00;;;;;;;15.18;13.68;;;23.10;99.90;;;;;;5070490;28;20185;-82
2023/05/26 11:54:26;;;;;;;21.80;14.98;;;23.20;99.90;;;;;;5109167;28;20792;-85
2023/05/26 11:56:53;;;;;;;18.30;15.05;;;23.20;99.90;;;;;;5107603;28;20761;-86
2023/05/26 11:59:22;;;;;;;18.58;16.52;;;23.20;99.90;;;;;;5114861;27;20241;-86
2023/05/26 12:01:59;;;;;;;20.88;16.70;;;23.20;99.90;;;;;;5093372;28;20177;-85
2023/05/26 12:04:30;;;;;;;18.50;16.52;;;23.10;99.90;;;;;;5073211;28;20239;-91
2023/05/26 12:06:56;;;;;;;20.75;18.20;;;23.00;99.90;;;;;;5107838;27;20178;-87
2023/05/26 12:09:24;;;;;;;22.02;17.25;;;23.00;99.90;;;;;;5090340;28;20197;-85
2023/05/26 12:11:57;;;;;;;20.17;18.10;;;22.90;99.90;;;;;;5101018;28;20197;-86
2023/05/26 12:14:23;;;;;;;22.13;19.83;;;22.90;99.90;;;;;;5074375;27;20276;-87
2023/05/26 12:16:54;;;;;;;20.77;18.77;;;22.90;99.90;;;;;;5100625;28;20196;-88
2023/05/26 12:19:22;;;;;;;22.83;20.58;;;22.90;99.90;;;;;;5091034;28;20755;-88
2023/05/26 12:21:52;;;;;;;23.17;20.90;;;22.80;99.90;;;;;;5125628;27;20256;-91
2023/05/26 12:24:38;;;;;;;22.60;20.20;;;22.80;99.90;;;;;;5100688;28;20182;-89
2023/05/26 12:27:12;;;;;;;22.42;20.05;;;22.80;99.90;;;;;;5087067;28;20522;-90
2023/05/26 12:29:43;;;;;;;23.13;20.58;;;22.70;99.90;;;;;;5108198;27;20522;-90
2023/05/26 12:32:11;;;;;;;24.27;21.08;;;22.70;99.90;;;;;;5106941;28;20300;-90
2023/05/26 12:34:43;;;;;;;23.35;20.35;;;22.70;99.90;;;;;;5081650;27;20177;-88
2023/05/26 12:37:19;;;;;;;24.00;21.40;;;22.60;99.90;;;;;;5076931;28;20185;-89
2023/05/26 12:40:01;;;;;;;24.23;21.80;;;22.70;99.90;;;;;;5109636;28;20698;-92
2023/05/26 12:42:27;;;;;;;25.85;21.45;;;22.60;99.90;;;;;;5099212;28;20185;-94
2023/05/26 12:44:57;;;;;;;25.40;21.95;;;22.50;99.90;;;;;;5078944;28;20205;-87
2023/05/26 12:47:26;;;;;;;24.45;22.10;;;22.30;99.90;;;;;;5119358;27;20320;-90